createdAt,value
2023-05-19T00:00:26.106Z,20.02
2023-05-19T00:02:54.478Z,20.06
2023-05-19T00:05:23.405Z,20.09
2023-05-19T00:07:54.903Z,19.90
2023-05-19T00:10:29.152Z,19.77
2023-05-19T00:13:04.484Z,19.53
2023-05-19T00:15:35.855Z,19.58
2023-05-19T00:18:10.567Z,19.63
2023-05-19T00:20:40.564Z,19.63
2023-05-19T00:23:08.965Z,19.54
2023-05-19T00:25:37.015Z,19.45
2023-05-19T00:28:05.494Z,19.70
2023-05-19T00:30:33.753Z,19.75
2023-05-19T00:33:04.297Z,19.56
2023-05-19T00:35:37.148Z,19.08
2023-05-19T00:38:13.435Z,19.46
2023-05-19T00:40:46.772Z,19.30
2023-05-19T00:43:23.264Z,19.58
2023-05-19T00:45:56.611Z,19.72
2023-05-19T00:48:26.078Z,19.65
2023-05-19T00:51:06.270Z,18.95
2023-05-19T00:53:37.564Z,19.56
2023-05-19T00:56:13.613Z,19.01
2023-05-19T00:58:55.292Z,18.99
2023-05-19T01:01:23.716Z,19.15
2023-05-19T01:03:59.365Z,19.37
2023-05-19T01:06:35.623Z,19.63
2023-05-19T01:09:06.996Z,19.36
2023-05-19T01:11:41.359Z,19.51
2023-05-19T01:14:16.178Z,19.37
2023-05-19T01:16:50.552Z,19.28
2023-05-19T01:19:22.513Z,19.06
2023-05-19T01:22:02.324Z,19.35
2023-05-19T01:24:49.484Z,19.40
2023-05-19T01:27:17.935Z,19.65
2023-05-19T01:30:05.601Z,19.62
2023-05-19T01:32:41.742Z,19.39
2023-05-19T01:35:17.386Z,19.41
2023-05-19T01:37:49.929Z,19.04
2023-05-19T01:40:19.372Z,19.38
2023-05-19T01:42:57.883Z,19.00
2023-05-19T01:45:34.402Z,19.03
2023-05-19T01:48:03.627Z,19.15
2023-05-19T01:50:36.893Z,19.02
2023-05-19T01:53:10.810Z,19.07
2023-05-19T01:55:47.500Z,19.20
2023-05-19T01:58:17.952Z,19.08
2023-05-19T02:00:57.706Z,19.29
2023-05-19T02:03:48.654Z,19.40
2023-05-19T02:06:37.655Z,19.36
2023-05-19T02:09:14.923Z,19.15
2023-05-19T02:12:12.447Z,19.12
2023-05-19T02:14:46.263Z,19.17
2023-05-19T02:17:26.198Z,19.12
2023-05-19T02:19:57.095Z,18.96
2023-05-19T02:22:27.533Z,19.10
2023-05-19T02:25:02.812Z,19.12
2023-05-19T02:28:09.277Z,18.89
2023-05-19T02:31:14.342Z,19.43
2023-05-19T02:34:12.466Z,19.15
2023-05-19T02:36:48.157Z,19.07
2023-05-19T02:39:28.580Z,19.11
2023-05-19T02:42:33.343Z,19.35
2023-05-19T02:45:14.565Z,19.44
2023-05-19T02:47:59.110Z,19.59
2023-05-19T02:50:49.749Z,19.73
2023-05-19T02:53:35.566Z,19.51
2023-05-19T02:56:21.286Z,19.31
2023-05-19T02:59:07.908Z,19.45
2023-05-19T03:02:04.678Z,19.31
2023-05-19T03:04:41.873Z,18.64
2023-05-19T03:07:35.519Z,19.11
2023-05-19T03:10:11.803Z,19.09
2023-05-19T03:12:44.795Z,19.09
2023-05-19T03:15:23.810Z,19.32
2023-05-19T03:18:08.547Z,19.12
2023-05-19T03:20:41.677Z,19.45
2023-05-19T03:23:16.617Z,19.28
2023-05-19T03:26:02.384Z,19.23
2023-05-19T03:29:05.938Z,18.98
2023-05-19T03:31:42.956Z,18.39
2023-05-19T03:34:19.457Z,18.76
2023-05-19T03:40:36.687Z,17.98
2023-05-19T03:43:12.582Z,18.34
2023-05-19T03:45:50.251Z,18.75
2023-05-19T03:49:09.350Z,18.42
2023-05-19T03:51:45.527Z,18.42
2023-05-19T03:54:26.490Z,18.38
2023-05-19T03:56:54.817Z,18.42
2023-05-19T03:59:24.003Z,18.49
2023-05-19T04:01:58.243Z,18.60
2023-05-19T04:04:29.675Z,18.50
2023-05-19T04:07:02.964Z,18.07
2023-05-19T04:09:43.038Z,18.03
2023-05-19T04:12:11.112Z,18.21
2023-05-19T04:14:42.102Z,18.60
2023-05-19T04:17:12.572Z,18.68
2023-05-19T04:19:43.612Z,18.60
2023-05-19T04:22:21.138Z,18.58
2023-05-19T04:24:53.284Z,19.14
2023-05-19T04:27:23.619Z,18.78
2023-05-19T04:29:59.507Z,18.94
2023-05-19T04:32:42.561Z,19.24
2023-05-19T04:35:13.930Z,19.29
2023-05-19T04:37:41.669Z,18.91
2023-05-19T04:40:11.362Z,19.39
2023-05-19T04:42:42.917Z,19.36
2023-05-19T04:45:15.128Z,19.24
2023-05-19T04:47:58.202Z,19.31
2023-05-19T04:50:26.390Z,19.63
2023-05-19T04:57:26.047Z,19.53
2023-05-19T05:00:17.588Z,19.45
2023-05-19T05:03:13.692Z,19.60
2023-05-19T05:05:49.478Z,19.32
2023-05-19T05:08:30.380Z,19.22
2023-05-19T05:10:59.894Z,19.19
2023-05-19T05:13:36.884Z,19.82
2023-05-19T05:16:12.388Z,18.97
2023-05-19T05:39:39.083Z,20.21
2023-05-19T05:47:20.915Z,19.72
2023-05-19T05:49:52.173Z,19.17
2023-05-19T05:53:28.180Z,19.50
2023-05-19T05:57:11.860Z,19.53
2023-05-19T06:00:54.417Z,19.18
2023-05-19T06:36:23.356Z,19.96
2023-05-19T06:38:57.698Z,19.74
2023-05-19T06:41:25.822Z,19.62
2023-05-19T06:43:53.300Z,20.00
2023-05-19T06:46:22.704Z,20.69
2023-05-19T06:52:31.468Z,20.23
2023-05-19T06:55:01.410Z,20.32
2023-05-19T06:57:28.913Z,20.48
2023-05-19T06:59:57.022Z,19.99
2023-05-19T07:02:24.813Z,20.20
2023-05-19T07:04:54.134Z,20.92
2023-05-19T07:07:26.824Z,20.82
2023-05-19T07:09:56.398Z,20.45
2023-05-19T07:12:24.838Z,20.53
2023-05-19T07:14:52.973Z,21.01
2023-05-19T07:17:20.808Z,20.74
2023-05-19T07:19:50.269Z,20.12
2023-05-19T07:22:17.683Z,20.53
2023-05-19T07:24:45.258Z,20.89
2023-05-19T07:27:12.625Z,20.91
2023-05-19T07:29:40.236Z,21.15
2023-05-19T07:32:07.719Z,20.75
2023-05-19T07:34:35.125Z,20.20
2023-05-19T07:37:03.517Z,19.90
2023-05-19T07:39:32.490Z,20.42
2023-05-19T07:41:59.996Z,20.82
2023-05-19T07:44:27.430Z,21.17
2023-05-19T07:46:54.912Z,20.88
2023-05-19T07:49:22.331Z,20.71
2023-05-19T07:51:49.964Z,20.92
2023-05-19T07:54:17.489Z,21.07
2023-05-19T07:56:44.900Z,21.20
2023-05-19T07:59:12.442Z,21.05
2023-05-19T08:01:39.917Z,20.99
2023-05-19T08:04:09.724Z,21.11
2023-05-19T08:06:40.281Z,21.65
2023-05-19T08:09:07.663Z,21.42
2023-05-19T08:11:35.145Z,20.92
2023-05-19T08:14:02.785Z,21.55
2023-05-19T08:16:30.222Z,21.48
2023-05-19T08:18:57.932Z,21.00
2023-05-19T08:21:25.375Z,21.16
2023-05-19T08:23:52.795Z,21.07
2023-05-19T08:26:20.196Z,20.68
2023-05-19T08:28:47.678Z,20.83
2023-05-19T08:31:15.117Z,21.67
2023-05-19T08:33:42.576Z,21.46
2023-05-19T08:36:10.201Z,21.53
2023-05-19T08:38:37.768Z,21.04
2023-05-19T08:41:06.334Z,21.52
2023-05-19T08:43:37.376Z,21.58
2023-05-19T08:46:13.795Z,21.99
2023-05-19T08:48:42.973Z,21.83
2023-05-19T08:51:25.444Z,21.67
2023-05-19T08:53:53.914Z,21.97
2023-05-19T08:56:22.188Z,21.73
2023-05-19T08:58:50.371Z,21.85
2023-05-19T09:01:42.330Z,21.78
2023-05-19T09:04:10.201Z,21.33
2023-05-19T09:06:41.279Z,21.86
2023-05-19T09:09:08.817Z,21.58
2023-05-19T09:11:37.827Z,22.00
2023-05-19T09:14:05.440Z,21.59
2023-05-19T09:16:34.067Z,21.52
2023-05-19T09:19:01.785Z,21.61
2023-05-19T09:21:32.827Z,21.61
2023-05-19T09:24:06.841Z,21.10
2023-05-19T09:26:40.488Z,21.38
2023-05-19T09:29:14.630Z,21.41
2023-05-19T09:31:52.031Z,21.23
2023-05-19T09:34:19.985Z,21.60
2023-05-19T09:36:49.670Z,21.55
2023-05-19T09:39:17.961Z,21.74
2023-05-19T09:41:45.314Z,21.56
2023-05-19T09:44:23.315Z,21.09
2023-05-19T09:46:51.474Z,21.10
2023-05-19T09:49:21.260Z,21.21
2023-05-19T09:51:53.783Z,21.08
2023-05-19T09:54:23.170Z,22.19
2023-05-19T09:57:00.269Z,21.93
2023-05-19T09:59:29.929Z,21.84
2023-05-19T10:02:01.442Z,22.52
2023-05-19T10:04:29.902Z,22.86
2023-05-19T10:06:59.921Z,22.20
2023-05-19T10:09:28.169Z,23.10
2023-05-19T10:11:58.894Z,23.69
2023-05-19T10:14:27.156Z,22.86
2023-05-19T10:16:58.682Z,21.82
2023-05-19T10:19:27.251Z,23.03
2023-05-19T10:21:55.009Z,22.66
2023-05-19T10:24:22.539Z,23.03
2023-05-19T10:27:03.573Z,23.86
2023-05-19T10:29:33.391Z,23.05
2023-05-19T10:32:06.884Z,23.17
2023-05-19T10:34:57.431Z,22.82
2023-05-19T10:37:36.911Z,23.31
2023-05-19T10:40:10.189Z,23.16
2023-05-19T10:42:58.007Z,21.59
2023-05-19T10:45:27.825Z,22.40
2023-05-19T10:47:55.465Z,23.30
2023-05-19T10:50:23.268Z,22.40
2023-05-19T10:52:56.785Z,22.69
2023-05-19T10:55:44.884Z,22.87
2023-05-19T10:58:12.185Z,23.13
2023-05-19T11:00:39.866Z,21.56
2023-05-19T11:03:16.746Z,20.93
2023-05-19T11:05:46.477Z,20.75
2023-05-19T11:08:13.811Z,21.05
2023-05-19T11:10:43.786Z,20.02
2023-05-19T11:13:18.801Z,21.27
2023-05-19T11:15:46.669Z,21.30
2023-05-19T11:18:16.195Z,20.95
2023-05-19T11:20:44.676Z,22.33
2023-05-19T11:23:18.056Z,22.01
2023-05-19T11:25:49.306Z,22.44
2023-05-19T11:28:20.668Z,21.75
2023-05-19T11:30:50.797Z,20.80
2023-05-19T11:33:19.660Z,20.48
2023-05-19T11:35:49.365Z,20.63
2023-05-19T11:38:20.044Z,21.40
2023-05-19T11:40:49.765Z,21.53
2023-05-19T11:43:17.072Z,20.50
2023-05-19T11:45:45.048Z,20.68
2023-05-19T11:48:13.075Z,21.25
2023-05-19T11:50:42.373Z,21.51
2023-05-19T11:53:12.383Z,20.44
2023-05-19T11:56:04.613Z,20.70
2023-05-19T11:58:32.082Z,21.26
2023-05-19T12:01:03.766Z,20.87
2023-05-19T12:03:37.237Z,20.97
2023-05-19T12:06:26.188Z,20.91
2023-05-19T12:08:56.509Z,21.96
2023-05-19T12:11:24.997Z,22.44
2023-05-19T12:13:55.430Z,21.47
2023-05-19T12:16:23.174Z,21.30
2023-05-19T12:18:50.841Z,21.05
2023-05-19T12:21:18.313Z,20.73
2023-05-19T12:23:45.754Z,21.08
2023-05-19T12:26:13.286Z,21.18
2023-05-19T12:28:44.110Z,21.94
2023-05-19T12:31:15.252Z,22.04
2023-05-19T12:33:46.914Z,21.66
2023-05-19T12:36:15.901Z,21.64
2023-05-19T12:38:43.657Z,21.93
2023-05-19T12:41:13.900Z,21.63
2023-05-19T12:43:41.385Z,21.88
2023-05-19T12:46:12.323Z,21.84
2023-05-19T12:48:40.641Z,21.29
2023-05-19T12:51:08.122Z,20.75
2023-05-19T12:53:35.482Z,20.80
2023-05-19T12:56:10.655Z,20.82
2023-05-19T12:58:39.068Z,20.10
2023-05-19T13:01:07.786Z,20.54
2023-05-19T13:04:02.778Z,21.19
2023-05-19T13:06:33.841Z,20.28
2023-05-19T13:09:01.207Z,20.32
2023-05-19T13:11:29.284Z,20.55
2023-05-19T13:13:57.894Z,20.45
2023-05-19T13:16:29.596Z,20.60
2023-05-19T13:18:57.630Z,20.77
2023-05-19T13:21:25.158Z,21.24
2023-05-19T13:23:53.459Z,21.51
2023-05-19T13:26:21.762Z,21.59
2023-05-19T13:28:49.264Z,21.49
2023-05-19T13:31:51.882Z,21.22
2023-05-19T13:34:21.132Z,21.03
2023-05-19T13:36:49.127Z,21.33
2023-05-19T13:39:18.899Z,20.71
2023-05-19T13:41:46.907Z,20.26
2023-05-19T13:44:14.256Z,20.97
2023-05-19T13:46:45.535Z,20.17
2023-05-19T13:49:14.308Z,21.26
2023-05-19T13:51:42.800Z,20.55
2023-05-19T13:54:10.390Z,20.92
2023-05-19T13:56:39.322Z,20.26
2023-05-19T13:59:06.721Z,20.01
2023-05-19T14:01:40.162Z,20.25
2023-05-19T14:04:07.777Z,20.81
2023-05-19T14:06:35.345Z,20.84
2023-05-19T14:09:03.202Z,21.10
2023-05-19T14:11:30.773Z,21.51
2023-05-19T14:13:59.258Z,21.68
2023-05-19T14:16:28.927Z,21.35
2023-05-19T14:18:56.989Z,21.47
2023-05-19T14:21:24.599Z,20.70
2023-05-19T14:23:52.020Z,21.12
2023-05-19T14:26:19.995Z,20.51
2023-05-19T14:28:47.551Z,20.90
2023-05-19T14:31:15.344Z,20.34
2023-05-19T14:33:42.823Z,21.00
2023-05-19T14:36:10.628Z,20.39
2023-05-19T14:38:38.061Z,20.05
2023-05-19T14:41:07.669Z,20.02
2023-05-19T14:43:35.042Z,20.50
2023-05-19T14:46:02.527Z,20.91
2023-05-19T14:48:29.979Z,21.34
2023-05-19T14:50:57.385Z,21.15
2023-05-19T14:53:24.760Z,21.56
2023-05-19T14:55:52.177Z,21.51
2023-05-19T14:58:27.650Z,21.28
2023-05-19T15:00:59.583Z,21.24
2023-05-19T15:03:27.110Z,20.61
2023-05-19T15:05:54.586Z,20.21
2023-05-19T15:08:21.974Z,20.64
2023-05-19T15:10:49.920Z,20.03
2023-05-19T15:13:19.449Z,20.29
2023-05-19T15:15:46.738Z,20.86
2023-05-19T15:18:17.997Z,20.32
2023-05-19T15:20:46.633Z,20.08
2023-05-19T15:23:13.926Z,20.36
2023-05-19T15:25:41.325Z,20.89
2023-05-19T15:28:08.674Z,19.36
2023-05-19T15:30:36.169Z,20.15
2023-05-19T15:33:03.721Z,19.63
2023-05-19T15:35:32.086Z,19.86
2023-05-19T15:38:05.289Z,20.72
2023-05-19T15:40:33.304Z,20.28
2023-05-19T15:43:01.045Z,19.92
2023-05-19T15:45:28.475Z,20.22
2023-05-19T15:47:56.171Z,19.93
2023-05-19T15:50:23.616Z,20.01
2023-05-19T15:52:50.858Z,19.71
2023-05-19T15:55:18.196Z,20.51
2023-05-19T15:57:46.563Z,20.12
2023-05-19T16:00:14.160Z,20.94
2023-05-19T16:02:41.623Z,20.91
2023-05-19T16:05:09.041Z,20.31
2023-05-19T16:07:36.417Z,20.59
2023-05-19T16:10:03.836Z,19.71
2023-05-19T16:12:31.619Z,19.26
2023-05-19T16:14:58.996Z,19.29
2023-05-19T16:17:26.403Z,20.03
2023-05-19T16:19:53.813Z,19.84
2023-05-19T16:22:24.645Z,19.67
2023-05-19T16:25:10.787Z,19.79
2023-05-19T16:27:38.124Z,19.99
2023-05-19T16:30:05.775Z,20.46
2023-05-19T16:32:34.065Z,20.89
2023-05-19T16:35:01.652Z,20.98
2023-05-19T16:37:29.032Z,21.19
2023-05-19T16:39:56.535Z,21.09
2023-05-19T16:42:23.935Z,21.33
2023-05-19T16:44:51.280Z,21.41
2023-05-19T16:47:18.691Z,21.98
2023-05-19T16:49:46.093Z,22.08
2023-05-19T16:52:13.393Z,22.18
2023-05-19T16:54:42.652Z,22.15
2023-05-19T16:57:10.065Z,22.11
2023-05-19T16:59:37.287Z,22.33
2023-05-19T17:02:04.718Z,21.88
2023-05-19T17:04:32.131Z,22.07
2023-05-19T17:06:59.558Z,22.28
2023-05-19T17:09:26.863Z,22.35
2023-05-19T17:11:54.337Z,22.11
2023-05-19T17:14:21.670Z,22.39
2023-05-19T17:16:49.007Z,21.40
2023-05-19T17:19:16.964Z,21.65
2023-05-19T17:21:44.360Z,21.65
2023-05-19T17:24:11.871Z,21.50
2023-05-19T17:26:39.299Z,21.40
2023-05-19T17:29:06.564Z,21.39
2023-05-19T17:31:33.907Z,21.81
